SPJL/JUL METAR and TAF weather

Enter ICAO airport designator
Station Type Date Time Source
SPJL METAR 2024/04/15 00:00 UTC NOAA

SPJL 150000Z 30009KT 9999 SCT020 12/00 Q1032 RMK PP000


Station Type Date Time Source
SPJL Decoded METAR 2024/04/15 00:00 UTC NOAA

Juliaca, Peru (SPJL) 15-29S 070-09W 3827M
Apr 14, 2024 - 08:00 PM EDT / 2024.04.15 0000 UTC
Wind: from the WNW (300 degrees) at 10 MPH (9 KT):0
Visibility: greater than 7 mile(s):0
Sky conditions: partly cloudy
Temperature: 53 F (12 C)
Dew Point: 32 F (0 C)
Relative Humidity: 43%
Pressure (altimeter): 30.47 in. Hg (1032 hPa)
ob: SPJL 150000Z 30009KT 9999 SCT020 12/00 Q1032 RMK PP000
cycle: 0

Station Type Date Time Source
SPJL TAF 2024/04/14 18:33 UTC NOAA